Time;durP1;ratioP1;P1;durP2;ratioP2;P2;SDS_P1;SDS_P2;PMS_P1;PMS_P2;Temp;Humidity;BMP_temperature;BMP_pressure;BME280_temperature;BME280_humidity;BME280_pressure;Samples;Min_cycle;Max_cycle;Signal;HPM_P1;HPM_P2
2021/11/18 00:01:56;;;;;;;28.80;26.83;;;7.30;99.90;;;;;;5060850;28;20443;-72
2021/11/18 00:04:23;;;;;;;29.00;26.90;;;7.40;99.90;;;;;;5062082;28;20443;-71
2021/11/18 00:06:51;;;;;;;29.47;27.17;;;7.40;99.90;;;;;;5061133;28;20481;-72
2021/11/18 00:09:19;;;;;;;30.57;28.00;;;7.50;99.90;;;;;;5060203;28;20448;-72
2021/11/18 00:11:49;;;;;;;28.30;26.27;;;7.40;99.90;;;;;;5060208;28;20472;-71
2021/11/18 00:14:16;;;;;;;26.70;24.90;;;7.40;99.90;;;;;;5060284;28;21014;-73
2021/11/18 00:16:43;;;;;;;28.10;25.97;;;7.40;99.90;;;;;;5062231;28;20525;-72
2021/11/18 00:19:10;;;;;;;25.80;23.70;;;7.40;99.90;;;;;;5060824;28;20934;-74
2021/11/18 00:21:39;;;;;;;25.50;23.73;;;7.40;99.90;;;;;;5060173;28;20457;-72
2021/11/18 00:24:08;;;;;;;26.80;24.37;;;7.40;99.90;;;;;;5060103;28;20440;-74
2021/11/18 00:26:36;;;;;;;26.37;24.47;;;7.40;99.90;;;;;;5060018;28;20440;-74
2021/11/18 00:29:05;;;;;;;27.73;25.67;;;7.40;99.90;;;;;;5061780;28;20451;-74
2021/11/18 00:31:34;;;;;;;28.53;26.53;;;7.30;99.90;;;;;;5056312;28;20595;-74
2021/11/18 00:34:02;;;;;;;26.30;24.30;;;7.30;99.90;;;;;;5051350;28;20491;-75
2021/11/18 00:36:29;;;;;;;26.33;24.30;;;7.30;99.90;;;;;;5051232;28;20827;-74
2021/11/18 00:38:57;;;;;;;26.97;24.70;;;7.40;99.90;;;;;;5051291;28;20467;-74
2021/11/18 00:41:24;;;;;;;25.17;23.43;;;7.40;99.90;;;;;;5051297;28;20571;-74
2021/11/18 00:43:51;;;;;;;24.83;23.00;;;7.40;99.90;;;;;;5051111;28;20448;-72
2021/11/18 00:46:19;;;;;;;26.37;24.50;;;7.40;99.90;;;;;;5050980;28;20459;-72
2021/11/18 00:48:46;;;;;;;25.20;23.37;;;7.30;99.90;;;;;;5051139;28;20478;-72
2021/11/18 00:51:15;;;;;;;28.17;25.17;;;7.20;99.90;;;;;;5050929;28;20486;-72
2021/11/18 00:53:46;;;;;;;25.63;23.93;;;7.30;99.90;;;;;;5050783;28;20482;-72
2021/11/18 00:56:12;;;;;;;26.53;24.77;;;7.30;99.90;;;;;;5051033;28;20455;-72
2021/11/18 00:58:39;;;;;;;27.27;25.27;;;7.30;99.90;;;;;;5051092;28;20513;-73
2021/11/18 01:01:06;;;;;;;28.20;26.27;;;7.20;99.90;;;;;;5050910;28;20455;-73
2021/11/18 01:03:35;;;;;;;28.40;25.60;;;7.20;99.90;;;;;;5050650;28;20444;-73
2021/11/18 01:06:02;;;;;;;28.23;26.17;;;7.20;99.90;;;;;;5050715;28;20456;-72
2021/11/18 01:08:29;;;;;;;27.50;25.60;;;7.30;99.90;;;;;;5051074;28;20463;-72
2021/11/18 01:10:58;;;;;;;29.40;27.40;;;7.30;99.90;;;;;;5050983;28;20451;-73
2021/11/18 01:13:27;;;;;;;28.57;26.30;;;7.30;99.90;;;;;;5050661;28;20872;-73
2021/11/18 01:15:54;;;;;;;30.17;27.77;;;7.20;99.90;;;;;;5050824;28;20455;-74
2021/11/18 01:18:22;;;;;;;29.43;27.23;;;7.20;99.90;;;;;;5050764;28;20467;-72
2021/11/18 01:20:50;;;;;;;30.93;28.40;;;7.20;99.90;;;;;;5050782;28;20448;-73
2021/11/18 01:23:20;;;;;;;28.90;26.80;;;7.30;99.90;;;;;;5050738;28;20462;-73
2021/11/18 01:25:47;;;;;;;29.77;27.47;;;7.20;99.90;;;;;;5050538;28;20934;-73
2021/11/18 01:28:14;;;;;;;31.00;28.10;;;7.20;99.90;;;;;;5050712;28;20459;-75
2021/11/18 01:30:42;;;;;;;31.20;28.60;;;7.20;99.90;;;;;;5050589;28;20474;-72
2021/11/18 01:33:11;;;;;;;29.70;27.30;;;7.20;99.90;;;;;;5050455;28;20712;-73
2021/11/18 01:35:39;;;;;;;28.50;26.37;;;7.20;99.90;;;;;;5050450;28;20458;-73
2021/11/18 01:38:08;;;;;;;29.73;27.13;;;7.10;99.90;;;;;;5050651;28;20916;-72
2021/11/18 01:40:37;;;;;;;29.77;27.43;;;7.20;99.90;;;;;;5050547;28;20497;-72
2021/11/18 01:43:04;;;;;;;29.27;26.77;;;7.20;99.90;;;;;;5050328;28;20460;-72
2021/11/18 01:45:33;;;;;;;30.33;27.43;;;7.30;99.90;;;;;;5050654;28;20458;-72
2021/11/18 01:47:59;;;;;;;29.50;27.10;;;7.20;99.90;;;;;;5050416;28;20466;-72
2021/11/18 01:50:29;;;;;;;31.13;28.50;;;7.20;99.90;;;;;;5050374;28;20463;-73
2021/11/18 01:52:57;;;;;;;32.17;29.47;;;7.30;99.90;;;;;;5050129;28;20499;-73
2021/11/18 01:55:25;;;;;;;31.80;29.10;;;7.30;99.90;;;;;;5050467;28;20471;-72
2021/11/18 01:57:54;;;;;;;30.30;27.73;;;7.20;99.90;;;;;;5050549;28;20462;-72
2021/11/18 02:00:27;;;;;;;30.70;28.20;;;7.20;99.90;;;;;;5050306;28;20446;-72
2021/11/18 02:02:54;;;;;;;30.80;28.53;;;7.20;99.90;;;;;;5050176;28;20450;-73
2021/11/18 02:05:24;;;;;;;30.80;28.13;;;7.20;99.90;;;;;;5050158;28;20458;-73
2021/11/18 02:07:52;;;;;;;30.67;28.13;;;7.20;99.90;;;;;;5050365;28;20444;-72
2021/11/18 02:10:21;;;;;;;31.30;28.80;;;7.10;99.90;;;;;;5050250;28;20467;-72
2021/11/18 02:12:50;;;;;;;32.00;29.17;;;7.10;99.90;;;;;;5050016;28;21019;-72
2021/11/18 02:15:24;;;;;;;32.60;29.80;;;7.10;99.90;;;;;;5050236;28;20479;-72
2021/11/18 02:17:51;;;;;;;33.40;30.53;;;7.10;99.90;;;;;;5052419;28;20546;-72
2021/11/18 02:20:22;;;;;;;32.23;29.70;;;7.20;99.90;;;;;;5053666;28;20460;-73
2021/11/18 02:22:49;;;;;;;32.27;29.40;;;7.20;99.90;;;;;;5053573;28;20447;-73
2021/11/18 02:25:16;;;;;;;32.97;29.90;;;7.20;99.90;;;;;;5053439;28;20451;-73
2021/11/18 02:27:43;;;;;;;33.73;30.77;;;7.20;99.90;;;;;;5053852;28;20447;-72
2021/11/18 02:30:12;;;;;;;34.07;31.33;;;7.10;99.90;;;;;;5053598;28;20448;-72
2021/11/18 02:32:41;;;;;;;33.90;31.00;;;7.20;99.90;;;;;;5053244;28;20487;-71
2021/11/18 02:35:14;;;;;;;35.20;32.10;;;7.10;99.90;;;;;;5053838;28;20458;-71
2021/11/18 02:37:43;;;;;;;34.70;32.00;;;7.20;99.90;;;;;;5053447;28;20466;-72
2021/11/18 02:40:11;;;;;;;35.50;32.53;;;7.20;99.90;;;;;;5053423;28;20455;-71
2021/11/18 02:42:39;;;;;;;32.83;30.33;;;7.20;99.90;;;;;;5053482;28;20452;-71
2021/11/18 02:45:09;;;;;;;31.53;29.20;;;7.30;99.90;;;;;;5053037;28;20968;-72
2021/11/18 02:47:36;;;;;;;34.10;31.50;;;7.30;99.90;;;;;;5053445;28;20459;-71
2021/11/18 02:50:03;;;;;;;33.83;31.03;;;7.30;99.90;;;;;;5053361;28;20444;-71
2021/11/18 02:52:32;;;;;;;33.90;31.00;;;7.30;99.90;;;;;;5052777;28;20998;-72
2021/11/18 02:55:03;;;;;;;33.17;30.30;;;7.30;99.90;;;;;;5053094;28;20448;-73
2021/11/18 02:57:30;;;;;;;32.77;30.30;;;7.30;99.90;;;;;;5052937;28;20462;-73
2021/11/18 02:59:57;;;;;;;33.10;30.30;;;7.30;99.90;;;;;;5053123;28;20813;-73
2021/11/18 03:02:24;;;;;;;34.33;31.33;;;7.30;99.90;;;;;;5052850;28;20454;-73
2021/11/18 03:04:51;;;;;;;32.67;30.00;;;7.30;99.90;;;;;;5052805;28;20559;-73
2021/11/18 03:07:18;;;;;;;32.47;29.77;;;7.30;99.90;;;;;;5052818;28;20475;-73
2021/11/18 03:09:44;;;;;;;32.33;29.70;;;7.30;99.90;;;;;;5052868;28;20455;-73
2021/11/18 03:12:12;;;;;;;32.10;29.40;;;7.30;99.90;;;;;;5052823;28;20490;-73
2021/11/18 03:14:39;;;;;;;32.63;29.97;;;7.30;99.90;;;;;;5052987;28;20448;-73
2021/11/18 03:17:06;;;;;;;33.10;30.30;;;7.30;99.90;;;;;;5052611;28;20478;-73
2021/11/18 03:19:33;;;;;;;32.80;30.20;;;7.40;99.90;;;;;;5052357;28;20513;-73
2021/11/18 03:22:00;;;;;;;32.20;29.60;;;7.40;99.90;;;;;;5052674;28;20463;-72
2021/11/18 03:24:27;;;;;;;32.23;29.67;;;7.50;99.90;;;;;;5052635;28;20455;-72
2021/11/18 03:26:53;;;;;;;29.23;26.90;;;7.40;99.90;;;;;;5052591;28;20459;-77
2021/11/18 03:29:22;;;;;;;31.37;28.90;;;7.50;99.90;;;;;;5052546;28;20454;-72
2021/11/18 03:31:48;;;;;;;32.33;29.83;;;7.40;99.90;;;;;;5051927;28;20484;-73
2021/11/18 03:34:22;;;;;;;32.77;29.53;;;7.50;99.90;;;;;;5052351;28;20444;-73
2021/11/18 03:36:49;;;;;;;30.40;27.97;;;7.50;99.90;;;;;;5052224;28;20466;-72
2021/11/18 03:39:19;;;;;;;30.87;28.27;;;7.40;99.90;;;;;;5052217;28;20530;-73
2021/11/18 03:41:49;;;;;;;32.43;29.93;;;7.40;99.90;;;;;;5052268;28;20459;-73
2021/11/18 03:44:16;;;;;;;33.00;30.30;;;7.50;99.90;;;;;;5051897;28;20455;-73
2021/11/18 03:46:48;;;;;;;32.47;29.67;;;7.50;99.90;;;;;;5052148;28;20459;-73
2021/11/18 03:49:15;;;;;;;33.30;30.30;;;7.40;99.90;;;;;;5051905;28;20463;-73
2021/11/18 03:51:42;;;;;;;31.97;29.27;;;7.40;99.90;;;;;;5051513;28;20444;-73
2021/11/18 03:54:11;;;;;;;30.87;28.10;;;7.40;99.90;;;;;;5051892;28;20538;-73
2021/11/18 03:56:42;;;;;;;34.27;31.40;;;7.40;99.90;;;;;;5051875;28;20450;-72
2021/11/18 03:59:09;;;;;;;31.30;28.60;;;7.40;99.90;;;;;;5052387;28;20436;-73
2021/11/18 04:01:36;;;;;;;31.90;28.70;;;7.30;99.90;;;;;;5051784;28;20459;-72
2021/11/18 04:04:08;;;;;;;32.07;29.13;;;7.30;99.90;;;;;;5051711;28;20462;-73
2021/11/18 04:06:37;;;;;;;32.70;29.93;;;7.30;99.90;;;;;;5051865;28;20455;-72
2021/11/18 04:09:04;;;;;;;30.77;28.10;;;7.30;99.90;;;;;;5051580;28;20448;-72
2021/11/18 04:11:32;;;;;;;32.00;29.30;;;7.30;99.90;;;;;;5051585;28;20829;-73
2021/11/18 04:13:59;;;;;;;31.63;29.03;;;7.40;99.90;;;;;;5051476;28;21045;-73
2021/11/18 04:16:26;;;;;;;30.73;28.00;;;7.40;99.90;;;;;;5051478;28;20455;-73
2021/11/18 04:18:53;;;;;;;31.77;28.40;;;7.40;99.90;;;;;;5051555;28;20459;-73
2021/11/18 04:21:22;;;;;;;31.87;28.93;;;7.40;99.90;;;;;;5051541;28;20461;-73
2021/11/18 04:23:49;;;;;;;32.13;29.50;;;7.40;99.90;;;;;;5051390;28;20448;-74
2021/11/18 04:26:15;;;;;;;32.77;29.87;;;7.40;99.90;;;;;;5051611;28;20455;-73
2021/11/18 04:28:42;;;;;;;32.20;29.37;;;7.50;99.90;;;;;;5051141;28;20452;-73
2021/11/18 04:31:16;;;;;;;30.00;27.60;;;7.50;99.90;;;;;;5051202;28;20481;-71
2021/11/18 04:33:42;;;;;;;30.60;28.10;;;7.50;99.90;;;;;;5051496;28;20483;-72
2021/11/18 04:36:12;;;;;;;31.03;28.27;;;7.50;99.90;;;;;;5050909;28;20462;-71
2021/11/18 04:38:43;;;;;;;30.20;27.70;;;7.50;99.90;;;;;;5051267;28;20452;-72
2021/11/18 04:41:10;;;;;;;31.57;28.67;;;7.60;99.90;;;;;;5050594;28;20452;-73
2021/11/18 04:43:39;;;;;;;30.37;27.87;;;7.60;99.90;;;;;;5051365;28;20448;-72
2021/11/18 04:46:09;;;;;;;30.93;28.20;;;7.60;99.90;;;;;;5050853;28;20852;-73
2021/11/18 04:48:36;;;;;;;31.00;28.30;;;7.70;99.90;;;;;;5051016;28;20962;-73
2021/11/18 04:51:03;;;;;;;31.60;28.80;;;7.70;99.90;;;;;;5050999;28;20444;-74
2021/11/18 04:53:30;;;;;;;31.20;28.50;;;7.80;99.90;;;;;;5050429;28;20537;-73
2021/11/18 04:55:58;;;;;;;31.60;28.70;;;7.70;99.90;;;;;;5050838;28;20926;-73
2021/11/18 04:58:25;;;;;;;32.73;29.93;;;7.70;99.90;;;;;;5050776;28;20889;-72
2021/11/18 05:00:55;;;;;;;30.53;27.83;;;7.70;99.90;;;;;;5051034;28;20452;-72
2021/11/18 05:03:24;;;;;;;33.47;30.20;;;7.60;99.90;;;;;;5050781;28;20942;-72
2021/11/18 05:05:51;;;;;;;33.83;30.60;;;7.60;99.90;;;;;;5050927;28;20466;-72
2021/11/18 05:08:18;;;;;;;32.83;29.60;;;7.50;99.90;;;;;;5050551;28;20460;-72
2021/11/18 05:10:48;;;;;;;34.10;30.60;;;7.60;99.90;;;;;;5050801;28;21161;-72
2021/11/18 05:13:17;;;;;;;32.60;29.33;;;7.50;99.90;;;;;;5050560;28;20479;-73
2021/11/18 05:15:47;;;;;;;33.17;30.17;;;7.60;99.90;;;;;;5050595;28;20452;-72
2021/11/18 05:18:14;;;;;;;33.57;30.37;;;7.60;99.90;;;;;;5050836;28;20463;-73
2021/11/18 05:20:42;;;;;;;33.73;30.83;;;7.60;99.90;;;;;;5050297;28;20451;-73
2021/11/18 05:23:11;;;;;;;33.33;30.27;;;7.60;99.90;;;;;;5050639;28;20444;-73
2021/11/18 05:25:39;;;;;;;31.73;28.77;;;7.60;99.90;;;;;;5050591;28;20444;-73
2021/11/18 05:28:06;;;;;;;34.20;30.90;;;7.70;99.90;;;;;;5050521;28;20459;-73
2021/11/18 05:30:35;;;;;;;33.37;30.27;;;7.60;99.90;;;;;;5050398;28;20472;-72
2021/11/18 05:33:05;;;;;;;34.87;31.33;;;7.60;99.90;;;;;;5050181;28;20942;-72
2021/11/18 05:35:33;;;;;;;32.30;29.27;;;7.70;99.90;;;;;;5050406;28;20441;-72
2021/11/18 05:38:01;;;;;;;32.87;29.57;;;7.70;99.90;;;;;;5050428;28;20526;-72
2021/11/18 05:40:28;;;;;;;32.30;29.30;;;7.80;99.90;;;;;;5050337;28;20470;-72
2021/11/18 05:42:55;;;;;;;33.37;29.80;;;7.70;99.90;;;;;;5050128;28;20447;-72
2021/11/18 05:45:24;;;;;;;33.13;29.80;;;7.70;99.90;;;;;;5050334;28;20448;-73
2021/11/18 05:47:54;;;;;;;35.80;31.83;;;7.60;99.90;;;;;;5050598;28;20798;-72
2021/11/18 05:50:22;;;;;;;34.00;30.80;;;7.60;99.90;;;;;;5050208;28;20961;-72
2021/11/18 05:52:49;;;;;;;33.17;30.00;;;7.70;99.90;;;;;;5052228;28;20499;-72
2021/11/18 05:55:18;;;;;;;32.83;29.60;;;7.60;99.90;;;;;;5054036;28;20444;-82
2021/11/18 05:57:46;;;;;;;35.17;31.00;;;7.60;99.90;;;;;;5054609;28;20976;-78
2021/11/18 06:00:17;;;;;;;34.20;31.10;;;7.60;99.90;;;;;;5054065;28;20456;-82
2021/11/18 06:02:44;;;;;;;33.70;30.53;;;7.70;99.90;;;;;;5054918;28;20469;-79
2021/11/18 06:05:12;;;;;;;32.20;28.90;;;7.70;99.90;;;;;;5053824;28;20462;-73
2021/11/18 06:07:39;;;;;;;32.23;29.20;;;7.80;99.90;;;;;;5053967;28;20951;-73
2021/11/18 06:10:07;;;;;;;33.63;30.30;;;7.80;99.90;;;;;;5054048;28;20452;-74
2021/11/18 06:12:34;;;;;;;32.33;29.40;;;7.90;99.90;;;;;;5053885;28;20459;-73
2021/11/18 06:15:01;;;;;;;31.70;28.60;;;7.80;99.90;;;;;;5054010;28;21000;-74
2021/11/18 06:17:27;;;;;;;32.20;29.07;;;7.80;99.90;;;;;;5053395;28;20447;-73
2021/11/18 06:19:54;;;;;;;30.60;27.73;;;7.70;99.90;;;;;;5053964;28;20451;-73
2021/11/18 06:22:25;;;;;;;32.77;29.57;;;7.70;99.90;;;;;;5053862;28;20444;-73
2021/11/18 06:24:51;;;;;;;33.93;30.80;;;7.60;99.90;;;;;;5053683;28;20531;-73
2021/11/18 06:27:18;;;;;;;34.30;31.00;;;7.60;99.90;;;;;;5053810;28;20455;-73
2021/11/18 06:29:45;;;;;;;36.37;32.67;;;7.70;99.90;;;;;;5053771;28;20447;-74
2021/11/18 06:32:12;;;;;;;34.87;30.47;;;7.70;99.90;;;;;;5053293;28;20554;-73
2021/11/18 06:34:41;;;;;;;36.70;33.17;;;7.60;99.90;;;;;;5053419;28;20480;-73
2021/11/18 06:37:08;;;;;;;34.93;31.23;;;7.60;99.90;;;;;;5053675;28;20452;-73
2021/11/18 06:39:36;;;;;;;32.47;29.50;;;7.70;99.90;;;;;;5053282;28;20968;-74
2021/11/18 06:42:03;;;;;;;33.43;30.30;;;7.70;99.90;;;;;;5053378;28;20456;-73
2021/11/18 06:44:30;;;;;;;30.73;27.93;;;7.80;99.90;;;;;;5053199;28;20455;-73
2021/11/18 06:46:57;;;;;;;34.80;31.40;;;7.70;99.90;;;;;;5053293;28;20811;-74
2021/11/18 06:49:23;;;;;;;32.40;29.50;;;7.70;99.90;;;;;;5053120;28;20444;-73
2021/11/18 06:51:50;;;;;;;34.27;30.60;;;7.80;99.90;;;;;;5052874;28;20467;-74
2021/11/18 06:54:18;;;;;;;32.60;29.40;;;7.90;99.90;;;;;;5052835;28;20488;-74
2021/11/18 06:56:47;;;;;;;31.33;28.60;;;8.00;99.90;;;;;;5052892;28;20917;-74
2021/11/18 06:59:14;;;;;;;33.73;30.73;;;7.90;99.90;;;;;;5052953;28;20965;-73
2021/11/18 07:01:42;;;;;;;32.67;29.43;;;7.90;99.90;;;;;;5053013;28;20866;-73
2021/11/18 07:04:10;;;;;;;31.73;28.90;;;7.90;99.90;;;;;;5052250;28;20480;-73
2021/11/18 07:06:38;;;;;;;30.73;27.93;;;7.90;99.90;;;;;;5052836;28;20945;-73
2021/11/18 07:09:07;;;;;;;31.40;28.63;;;8.00;99.90;;;;;;5052498;28;20448;-73
2021/11/18 07:11:35;;;;;;;31.20;28.10;;;8.00;99.90;;;;;;5052842;28;20755;-73
2021/11/18 07:14:04;;;;;;;28.30;25.90;;;8.10;99.90;;;;;;5052876;28;20491;-73
2021/11/18 07:16:31;;;;;;;31.37;28.77;;;8.10;99.90;;;;;;5052362;28;20448;-73
2021/11/18 07:18:59;;;;;;;30.77;28.23;;;8.10;99.90;;;;;;5052466;28;20460;-74
2021/11/18 07:21:26;;;;;;;31.60;28.40;;;8.00;99.90;;;;;;5052592;28;20448;-74
2021/11/18 07:23:56;;;;;;;31.33;28.67;;;8.10;99.90;;;;;;5052596;28;20586;-75
2021/11/18 07:26:23;;;;;;;30.67;28.03;;;8.20;99.90;;;;;;5052505;28;20452;-74
2021/11/18 07:28:50;;;;;;;29.17;26.07;;;8.10;99.90;;;;;;5052276;28;20452;-74
2021/11/18 07:31:20;;;;;;;31.23;27.90;;;8.10;99.90;;;;;;5052369;28;20479;-74
2021/11/18 07:33:47;;;;;;;30.40;27.43;;;8.10;99.90;;;;;;5052108;28;20546;-74
2021/11/18 07:36:14;;;;;;;32.90;29.40;;;8.20;99.90;;;;;;5051661;28;20447;-76
2021/11/18 07:38:41;;;;;;;29.83;27.13;;;8.30;99.90;;;;;;5052140;28;20451;-75
2021/11/18 07:41:09;;;;;;;30.57;27.93;;;8.40;99.90;;;;;;5052232;28;20477;-72
2021/11/18 07:43:39;;;;;;;30.93;27.73;;;8.40;99.90;;;;;;5052107;28;20452;-75
2021/11/18 07:46:08;;;;;;;32.40;29.27;;;8.50;99.90;;;;;;5051892;28;20828;-73
2021/11/18 07:48:36;;;;;;;33.10;29.77;;;8.60;99.90;;;;;;5052051;28;20459;-73
2021/11/18 07:51:05;;;;;;;32.27;25.93;;;8.60;99.90;;;;;;5052040;28;20806;-77
2021/11/18 07:53:32;;;;;;;30.77;27.97;;;8.60;99.90;;;;;;5051722;28;20498;-73
2021/11/18 07:55:58;;;;;;;32.43;29.60;;;8.60;99.90;;;;;;5051807;28;20467;-73
2021/11/18 07:58:25;;;;;;;29.27;26.87;;;8.70;99.90;;;;;;5055482;28;20557;-77
2021/11/18 08:00:53;;;;;;;32.30;29.27;;;8.70;99.90;;;;;;5056218;28;20463;-73
2021/11/18 08:03:20;;;;;;;32.37;29.03;;;8.60;99.90;;;;;;5051874;28;20463;-73
2021/11/18 08:05:48;;;;;;;31.20;28.40;;;8.50;99.90;;;;;;5051170;28;20450;-72
2021/11/18 08:08:15;;;;;;;33.37;30.17;;;8.50;99.90;;;;;;5051007;28;20452;-72
2021/11/18 08:10:42;;;;;;;33.20;30.40;;;8.50;99.90;;;;;;5051059;28;20838;-72
2021/11/18 08:13:09;;;;;;;31.40;28.20;;;8.50;99.90;;;;;;5050937;28;20448;-72
2021/11/18 08:15:36;;;;;;;34.60;31.33;;;8.60;99.90;;;;;;5050352;28;20443;-72
2021/11/18 08:18:03;;;;;;;32.97;29.50;;;8.60;99.90;;;;;;5053639;28;20554;-72
2021/11/18 08:20:31;;;;;;;34.47;30.70;;;8.50;99.90;;;;;;5063891;28;20459;-72
2021/11/18 08:22:59;;;;;;;32.20;29.30;;;8.50;99.90;;;;;;5055439;28;21118;-72
2021/11/18 08:25:30;;;;;;;32.03;29.00;;;8.60;99.90;;;;;;5051733;28;20460;-73
2021/11/18 08:27:57;;;;;;;32.83;29.70;;;8.60;99.90;;;;;;5071168;28;20458;-72
2021/11/18 08:30:28;;;;;;;31.90;29.10;;;8.60;99.90;;;;;;5070848;28;20471;-72
2021/11/18 08:32:58;;;;;;;31.87;28.70;;;8.70;99.90;;;;;;5071038;28;20447;-72
2021/11/18 08:35:31;;;;;;;30.70;27.70;;;8.70;99.90;;;;;;5057975;28;21016;-73
2021/11/18 08:38:00;;;;;;;30.40;27.40;;;8.70;99.90;;;;;;5051053;28;20460;-73
2021/11/18 08:40:28;;;;;;;31.83;28.47;;;8.80;99.90;;;;;;5067283;28;20514;-73
2021/11/18 08:42:55;;;;;;;29.83;27.23;;;8.90;99.90;;;;;;5070727;28;20827;-73
2021/11/18 08:45:23;;;;;;;32.30;29.50;;;8.90;99.90;;;;;;5070859;28;20443;-72
2021/11/18 08:47:50;;;;;;;29.77;27.13;;;9.00;99.90;;;;;;5070727;28;20447;-72
2021/11/18 08:50:21;;;;;;;27.90;25.37;;;9.00;99.90;;;;;;5070815;28;20458;-72
2021/11/18 08:52:49;;;;;;;28.60;26.00;;;9.10;99.90;;;;;;5070587;28;20981;-72
2021/11/18 08:55:20;;;;;;;27.33;24.73;;;9.10;99.90;;;;;;5070433;28;20483;-73
2021/11/18 08:57:48;;;;;;;27.50;24.80;;;9.00;99.90;;;;;;5070658;28;20443;-72
2021/11/18 09:00:19;;;;;;;26.27;23.97;;;9.10;99.90;;;;;;5070530;28;20455;-72
2021/11/18 09:02:47;;;;;;;30.23;26.70;;;9.10;99.90;;;;;;5070075;28;20457;-72
2021/11/18 09:05:13;;;;;;;30.10;27.37;;;9.10;99.90;;;;;;5070610;28;20453;-73
2021/11/18 09:07:40;;;;;;;29.87;26.97;;;9.30;99.90;;;;;;5070487;28;20834;-71
2021/11/18 09:10:09;;;;;;;30.43;27.60;;;9.40;99.90;;;;;;5070440;28;20458;-75
2021/11/18 09:12:37;;;;;;;27.67;25.17;;;9.20;99.90;;;;;;5069916;28;20928;-70
2021/11/18 09:15:05;;;;;;;29.50;26.70;;;9.40;99.90;;;;;;5069882;28;20483;-72
2021/11/18 09:17:31;;;;;;;29.80;26.87;;;9.40;99.90;;;;;;5070022;28;20450;-73
2021/11/18 09:19:58;;;;;;;31.00;27.30;;;9.40;99.90;;;;;;5070167;28;20462;-74
2021/11/18 09:22:25;;;;;;;29.73;26.80;;;9.40;99.90;;;;;;5069893;28;20809;-72
2021/11/18 09:24:55;;;;;;;33.70;28.47;;;9.50;99.90;;;;;;5069994;28;20451;-72
2021/11/18 09:27:25;;;;;;;29.47;26.50;;;9.60;99.90;;;;;;5073192;28;20546;-71
2021/11/18 09:29:54;;;;;;;27.57;24.83;;;9.60;99.90;;;;;;5073540;28;20458;-72
2021/11/18 09:32:21;;;;;;;28.63;25.60;;;9.50;99.90;;;;;;5073789;28;20554;-70
2021/11/18 09:34:48;;;;;;;27.67;24.83;;;9.70;99.90;;;;;;5069629;28;20488;-73
2021/11/18 09:37:15;;;;;;;28.30;25.60;;;9.70;99.90;;;;;;5074161;28;20479;-71
2021/11/18 09:39:43;;;;;;;30.63;27.53;;;9.70;99.90;;;;;;5074296;28;20573;-73
2021/11/18 09:42:12;;;;;;;34.37;27.30;;;9.60;99.90;;;;;;5074094;28;20447;-72
2021/11/18 09:45:12;;;;;;;29.30;26.40;;;9.60;99.90;;;;;;5071824;28;20443;-73
2021/11/18 09:48:15;;;;;;;29.43;26.43;;;9.50;99.90;;;;;;5073877;28;20451;-71
2021/11/18 09:50:50;;;;;;;30.10;26.50;;;9.60;99.90;;;;;;5073700;28;20444;-71
2021/11/18 09:53:27;;;;;;;29.80;27.00;;;9.60;99.90;;;;;;5073640;28;20475;-71
2021/11/18 09:56:01;;;;;;;30.27;26.40;;;9.70;99.90;;;;;;5073562;28;20447;-71
2021/11/18 09:58:47;;;;;;;30.43;27.67;;;9.80;99.90;;;;;;5073783;28;21020;-70
2021/11/18 10:01:35;;;;;;;32.17;28.60;;;9.80;99.90;;;;;;5073448;28;20447;-70
2021/11/18 10:04:19;;;;;;;29.73;26.80;;;10.10;99.90;;;;;;5073407;28;20864;-71
2021/11/18 10:06:48;;;;;;;29.80;24.37;;;10.20;99.90;;;;;;5073135;28;20450;-70
2021/11/18 10:09:18;;;;;;;27.10;24.60;;;10.40;99.90;;;;;;5073043;28;20451;-71
2021/11/18 10:11:52;;;;;;;29.37;26.53;;;10.60;99.90;;;;;;5073145;28;20454;-71
2021/11/18 10:14:35;;;;;;;27.57;24.80;;;10.70;99.90;;;;;;5073295;28;20480;-71
2021/11/18 10:17:24;;;;;;;25.03;22.50;;;11.30;99.90;;;;;;5073128;28;20447;-70
2021/11/18 10:19:54;;;;;;;25.07;22.67;;;11.80;99.90;;;;;;5073003;28;20447;-70
2021/11/18 10:22:24;;;;;;;24.73;22.40;;;12.00;99.90;;;;;;5073069;28;20451;-72
2021/11/18 10:24:53;;;;;;;23.70;21.70;;;12.30;99.90;;;;;;5072773;28;20450;-71
2021/11/18 10:27:28;;;;;;;26.63;23.97;;;12.30;99.90;;;;;;5072471;28;20454;-71
2021/11/18 10:30:07;;;;;;;25.67;23.20;;;12.30;99.90;;;;;;5072676;28;20435;-72
2021/11/18 10:32:47;;;;;;;23.03;21.07;;;12.40;99.90;;;;;;5072673;28;20455;-73
2021/11/18 10:35:18;;;;;;;25.47;23.10;;;12.60;99.90;;;;;;5072725;28;20956;-73
2021/11/18 10:37:48;;;;;;;23.17;21.17;;;13.20;99.90;;;;;;5072022;28;20447;-72
2021/11/18 10:40:18;;;;;;;25.27;22.60;;;13.90;99.90;;;;;;5072723;28;20451;-72
2021/11/18 10:42:48;;;;;;;24.63;22.40;;;14.40;99.90;;;;;;5072808;28;20462;-72
2021/11/18 10:45:37;;;;;;;22.47;20.57;;;14.60;99.90;;;;;;5072497;28;20498;-72
2021/11/18 10:48:14;;;;;;;23.53;21.47;;;15.10;99.90;;;;;;5072740;28;20525;-72
2021/11/18 10:50:44;;;;;;;22.20;20.47;;;15.30;99.90;;;;;;5072635;28;20455;-72
2021/11/18 10:53:16;;;;;;;22.27;20.27;;;16.20;99.90;;;;;;5072467;28;20486;-72
2021/11/18 10:55:46;;;;;;;23.77;21.67;;;16.40;99.90;;;;;;5070844;28;20575;-73
2021/11/18 10:58:28;;;;;;;22.50;20.70;;;15.70;99.90;;;;;;5072540;28;20451;-72
2021/11/18 11:01:00;;;;;;;23.07;21.20;;;15.30;99.90;;;;;;5072487;28;20849;-73
2021/11/18 11:03:35;;;;;;;22.30;20.40;;;13.90;99.90;;;;;;5072542;28;20866;-73
2021/11/18 11:06:14;;;;;;;23.80;21.70;;;13.50;99.90;;;;;;5072532;28;20453;-73
2021/11/18 11:08:42;;;;;;;26.77;24.23;;;13.00;99.90;;;;;;5072384;28;20447;-72
2021/11/18 11:11:17;;;;;;;23.20;20.80;;;12.50;99.90;;;;;;5072142;28;20556;-73
2021/11/18 11:14:12;;;;;;;25.50;23.20;;;11.80;99.90;;;;;;5072167;28;20936;-72
2021/11/18 11:17:01;;;;;;;27.67;24.70;;;11.30;99.90;;;;;;5072215;28;20854;-72
2021/11/18 11:19:38;;;;;;;26.20;23.50;;;11.00;99.90;;;;;;5072347;28;20451;-72
2021/11/18 11:22:14;;;;;;;25.77;23.50;;;11.00;99.90;;;;;;5071965;28;20462;-71
2021/11/18 11:25:16;;;;;;;28.47;25.63;;;11.00;99.90;;;;;;5071911;28;20446;-72
2021/11/18 11:28:11;;;;;;;25.47;23.23;;;11.00;99.90;;;;;;5038788;28;20457;-72
2021/11/18 11:30:46;;;;;;;23.17;21.07;;;10.90;99.90;;;;;;5045640;28;20474;-71
2021/11/18 11:33:20;;;;;;;26.73;23.93;;;10.90;99.90;;;;;;5072182;28;20454;-71
2021/11/18 11:35:53;;;;;;;24.00;21.70;;;11.20;99.90;;;;;;5071707;28;20512;-72
2021/11/18 11:38:42;;;;;;;22.83;20.93;;;11.40;99.90;;;;;;5072052;28;20443;-72
2021/11/18 11:41:42;;;;;;;20.53;18.93;;;11.60;99.90;;;;;;5071609;28;20821;-72
2021/11/18 11:44:15;;;;;;;26.17;23.77;;;11.50;99.90;;;;;;5066486;28;20447;-72
2021/11/18 11:46:48;;;;;;;24.70;22.60;;;11.50;99.90;;;;;;5071474;28;20562;-73
2021/11/18 11:49:38;;;;;;;28.13;25.33;;;11.20;99.90;;;;;;5071114;28;20450;-72
2021/11/18 11:52:38;;;;;;;25.03;22.50;;;11.20;99.90;;;;;;5071029;28;20485;-71
2021/11/18 11:55:25;;;;;;;24.63;21.03;;;11.10;99.90;;;;;;5071177;28;20503;-72
2021/11/18 11:57:57;;;;;;;23.73;21.67;;;11.00;99.90;;;;;;5071100;28;20451;-72
2021/11/18 12:00:31;;;;;;;23.70;21.47;;;10.90;99.90;;;;;;5071357;28;20829;-72
2021/11/18 12:03:13;;;;;;;23.50;21.47;;;11.10;99.90;;;;;;5071080;28;20812;-71
2021/11/18 12:05:46;;;;;;;25.37;23.30;;;11.10;99.90;;;;;;5071199;28;20455;-71
2021/11/18 12:08:21;;;;;;;24.27;22.07;;;11.20;99.90;;;;;;5071180;28;20477;-73
2021/11/18 12:10:54;;;;;;;23.67;21.63;;;11.20;99.90;;;;;;5070646;28;20447;-73
2021/11/18 12:13:28;;;;;;;23.60;21.70;;;11.20;99.90;;;;;;5070683;28;20455;-72
2021/11/18 12:15:58;;;;;;;24.23;22.10;;;11.10;99.90;;;;;;5070731;28;20485;-72
2021/11/18 12:18:30;;;;;;;23.23;21.20;;;11.10;99.90;;;;;;5070772;28;20935;-72
2021/11/18 12:20:59;;;;;;;25.37;23.10;;;11.00;99.90;;;;;;5070772;28;20446;-72
2021/11/18 12:23:59;;;;;;;24.83;22.80;;;11.00;99.90;;;;;;5070544;28;20447;-72
2021/11/18 12:26:29;;;;;;;23.07;21.00;;;10.80;99.90;;;;;;5070789;28;20444;-72
2021/11/18 12:29:04;;;;;;;21.97;20.27;;;10.80;99.90;;;;;;5070828;28;20447;-72
2021/11/18 12:31:32;;;;;;;22.27;20.00;;;10.90;99.90;;;;;;5070547;28;20474;-71
2021/11/18 12:34:03;;;;;;;21.27;19.60;;;10.90;99.90;;;;;;5070541;28;20962;-71
2021/11/18 12:36:56;;;;;;;20.43;18.93;;;11.00;99.90;;;;;;5070255;28;20508;-71
2021/11/18 12:39:47;;;;;;;20.43;19.00;;;10.90;99.90;;;;;;5070234;28;20555;-73
2021/11/18 12:42:40;;;;;;;20.10;18.60;;;11.00;99.90;;;;;;5070582;28;20446;-72
2021/11/18 12:45:43;;;;;;;20.93;19.30;;;10.90;99.90;;;;;;5069954;28;20451;-72
2021/11/18 12:48:14;;;;;;;21.63;19.87;;;10.70;99.90;;;;;;5070301;28;20454;-72
2021/11/18 12:51:12;;;;;;;19.60;18.20;;;10.80;99.90;;;;;;5070428;28;20459;-72
2021/11/18 12:53:43;;;;;;;19.27;17.83;;;10.90;99.90;;;;;;5069963;28;20497;-72